createdAt,value
2023-08-17T00:00:35.060Z,3.92
2023-08-17T00:03:07.759Z,4.82
2023-08-17T00:05:41.176Z,3.17
2023-08-17T00:08:13.866Z,3.95
2023-08-17T00:10:48.965Z,3.20
2023-08-17T00:13:21.540Z,6.97
2023-08-17T00:15:54.036Z,6.07
2023-08-17T00:18:26.693Z,3.42
2023-08-17T00:20:59.307Z,4.25
2023-08-17T00:23:31.951Z,8.27
2023-08-17T00:26:04.606Z,2.95
2023-08-17T00:28:37.179Z,5.72
2023-08-17T00:31:09.680Z,3.88
2023-08-17T00:33:42.211Z,6.72
2023-08-17T00:36:14.873Z,4.78
2023-08-17T00:38:47.419Z,5.30
2023-08-17T00:41:20.032Z,7.07
2023-08-17T00:43:52.688Z,3.13
2023-08-17T00:46:25.907Z,5.50
2023-08-17T00:48:59.476Z,3.85
2023-08-17T00:51:32.713Z,5.35
2023-08-17T00:54:05.611Z,4.35
2023-08-17T00:56:38.521Z,4.88
2023-08-17T00:59:11.626Z,4.07
2023-08-17T01:01:44.246Z,4.65
2023-08-17T01:04:17.273Z,3.33
2023-08-17T01:06:50.686Z,4.63
2023-08-17T01:09:23.265Z,3.90
2023-08-17T01:12:15.158Z,3.72
2023-08-17T01:14:50.625Z,4.88
2023-08-17T01:20:00.235Z,3.05
2023-08-17T01:22:37.176Z,2.80
2023-08-17T01:25:10.215Z,5.38
2023-08-17T01:27:46.334Z,7.88
2023-08-17T01:30:20.061Z,3.05
2023-08-17T01:33:02.427Z,2.13
2023-08-17T01:35:39.974Z,3.20
2023-08-17T01:38:24.468Z,4.10
2023-08-17T01:40:58.691Z,5.53
2023-08-17T01:43:31.662Z,4.25
2023-08-17T01:46:04.161Z,2.83
2023-08-17T01:48:37.097Z,3.80
2023-08-17T01:51:11.021Z,4.72
2023-08-17T01:53:43.581Z,4.65
2023-08-17T01:56:16.224Z,7.57
2023-08-17T01:58:48.847Z,4.95
2023-08-17T02:01:21.429Z,4.38
2023-08-17T02:03:54.008Z,5.68
2023-08-17T02:06:26.442Z,6.05
2023-08-17T02:08:59.763Z,7.25
2023-08-17T02:11:32.235Z,5.43
2023-08-17T02:14:04.932Z,8.15
2023-08-17T02:16:37.397Z,4.82
2023-08-17T02:19:09.892Z,5.40
2023-08-17T02:21:42.517Z,3.90
2023-08-17T02:24:15.030Z,4.20
2023-08-17T02:26:47.573Z,4.75
2023-08-17T02:29:20.224Z,2.95
2023-08-17T02:31:52.865Z,9.07
2023-08-17T02:34:25.338Z,4.78
2023-08-17T02:36:58.027Z,5.00
2023-08-17T02:39:30.701Z,3.13
2023-08-17T02:42:03.378Z,5.50
2023-08-17T02:44:36.004Z,4.45
2023-08-17T02:47:08.599Z,4.25
2023-08-17T02:49:41.247Z,2.95
2023-08-17T02:52:13.748Z,5.22
2023-08-17T02:54:46.376Z,5.90
2023-08-17T02:57:19.595Z,2.45
2023-08-17T02:59:52.149Z,6.65
2023-08-17T03:02:24.856Z,5.70
2023-08-17T03:04:57.454Z,5.90
2023-08-17T03:07:30.158Z,5.47
2023-08-17T03:10:02.670Z,4.60
2023-08-17T03:12:35.212Z,6.07
2023-08-17T03:15:08.218Z,4.15
2023-08-17T03:17:40.703Z,6.57
2023-08-17T03:20:13.442Z,5.18
2023-08-17T03:22:45.996Z,7.93
2023-08-17T03:25:19.950Z,3.65
2023-08-17T03:27:52.498Z,8.50
2023-08-17T03:30:25.134Z,4.38
2023-08-17T03:32:58.323Z,5.35
2023-08-17T03:35:30.991Z,5.07
2023-08-17T03:38:03.635Z,1.73
2023-08-17T03:40:37.262Z,2.42
2023-08-17T03:43:09.689Z,3.85
2023-08-17T03:45:42.839Z,4.72
2023-08-17T03:48:15.380Z,4.15
2023-08-17T03:50:48.142Z,4.32
2023-08-17T03:53:20.934Z,2.58
2023-08-17T03:55:53.530Z,3.45
2023-08-17T03:58:27.918Z,3.10
2023-08-17T04:01:00.415Z,4.28
2023-08-17T04:03:32.986Z,4.80
2023-08-17T04:06:11.230Z,3.58
2023-08-17T04:08:43.800Z,7.03
2023-08-17T04:11:16.278Z,3.53
2023-08-17T04:13:48.758Z,8.35
2023-08-17T04:16:21.453Z,2.08
2023-08-17T04:18:54.016Z,3.58
2023-08-17T04:21:26.608Z,6.72
2023-08-17T04:23:59.171Z,6.28
2023-08-17T04:26:31.704Z,3.13
2023-08-17T04:29:04.794Z,8.30
2023-08-17T04:31:37.453Z,3.63
2023-08-17T04:34:10.017Z,8.00
2023-08-17T04:36:42.527Z,3.95
2023-08-17T04:39:15.064Z,5.63
2023-08-17T04:41:48.108Z,8.55
2023-08-17T04:44:20.560Z,4.28
2023-08-17T04:46:53.087Z,2.95
2023-08-17T04:49:25.579Z,3.00
2023-08-17T04:51:58.254Z,9.35
2023-08-17T04:54:30.805Z,5.80
2023-08-17T04:57:04.620Z,3.05
2023-08-17T04:59:37.602Z,4.45
2023-08-17T05:02:10.159Z,3.15
2023-08-17T05:04:43.104Z,2.75
2023-08-17T05:07:15.607Z,3.90
2023-08-17T05:09:48.032Z,7.63
2023-08-17T05:12:20.510Z,6.25
2023-08-17T05:14:53.462Z,4.20
2023-08-17T05:17:26.257Z,5.35
2023-08-17T05:19:58.912Z,3.60
2023-08-17T05:22:31.384Z,5.05
2023-08-17T05:25:04.413Z,5.32
2023-08-17T05:27:36.904Z,2.70
2023-08-17T05:30:09.646Z,7.43
2023-08-17T05:32:42.110Z,6.68
2023-08-17T05:35:14.865Z,5.13
2023-08-17T05:37:47.279Z,3.88
2023-08-17T05:40:20.116Z,4.97
2023-08-17T05:42:52.644Z,2.75
2023-08-17T05:45:25.257Z,4.82
2023-08-17T05:47:57.782Z,3.40
2023-08-17T05:50:30.600Z,3.63
2023-08-17T05:53:03.132Z,7.53
2023-08-17T05:55:36.033Z,3.47
2023-08-17T05:58:08.524Z,3.65
2023-08-17T06:00:41.152Z,4.30
2023-08-17T06:03:13.763Z,10.15
2023-08-17T06:05:46.268Z,3.95
2023-08-17T06:08:18.763Z,4.63
2023-08-17T06:10:51.294Z,4.82
2023-08-17T06:13:23.930Z,5.13
2023-08-17T06:15:59.064Z,7.45
2023-08-17T06:18:32.025Z,4.68
2023-08-17T06:21:04.674Z,3.42
2023-08-17T06:23:37.326Z,4.15
2023-08-17T06:26:12.025Z,6.97
2023-08-17T06:28:44.554Z,3.40
2023-08-17T06:31:17.629Z,8.38
2023-08-17T06:33:50.410Z,18.83
2023-08-17T06:36:22.992Z,4.15
2023-08-17T06:38:55.473Z,8.65
2023-08-17T06:41:27.996Z,4.88
2023-08-17T06:44:00.880Z,7.53
2023-08-17T06:46:33.297Z,5.40
2023-08-17T06:49:05.851Z,4.80
2023-08-17T06:51:38.366Z,4.82
2023-08-17T06:54:10.954Z,7.30
2023-08-17T06:56:43.512Z,7.43
2023-08-17T06:59:16.192Z,7.88
2023-08-17T07:01:48.752Z,6.85
2023-08-17T07:04:21.303Z,6.47
2023-08-17T07:06:53.887Z,4.93
2023-08-17T07:09:26.606Z,5.15
2023-08-17T07:11:59.180Z,7.90
2023-08-17T07:14:31.842Z,4.88
2023-08-17T07:17:04.324Z,6.43
2023-08-17T07:20:03.943Z,3.63
2023-08-17T07:22:29.341Z,5.22
2023-08-17T07:25:01.962Z,6.60
2023-08-17T07:27:34.420Z,7.38
2023-08-17T07:30:08.257Z,8.00
2023-08-17T07:32:41.127Z,5.82
2023-08-17T07:35:13.872Z,4.70
2023-08-17T07:37:55.951Z,7.82
2023-08-17T07:40:36.938Z,3.80
2023-08-17T07:43:09.433Z,6.38
2023-08-17T07:45:42.021Z,4.45
2023-08-17T07:48:14.525Z,4.88
2023-08-17T07:50:53.873Z,4.82
2023-08-17T07:53:26.613Z,5.88
2023-08-17T07:55:59.105Z,4.95
2023-08-17T07:58:31.541Z,10.25
2023-08-17T08:01:04.502Z,4.40
2023-08-17T08:03:37.954Z,8.48
2023-08-17T08:06:10.453Z,4.30
2023-08-17T08:08:42.917Z,7.18
2023-08-17T08:11:15.753Z,5.03
2023-08-17T08:13:48.170Z,6.68
2023-08-17T08:16:20.744Z,7.97
2023-08-17T08:18:54.120Z,7.53
2023-08-17T08:21:28.755Z,10.45
2023-08-17T08:24:01.228Z,6.38
2023-08-17T08:26:33.700Z,6.03
2023-08-17T08:29:06.357Z,7.20
2023-08-17T08:31:38.921Z,5.97
2023-08-17T08:34:11.365Z,7.55
2023-08-17T08:36:43.830Z,4.28
2023-08-17T08:39:16.327Z,5.90
2023-08-17T08:41:48.815Z,5.75
2023-08-17T08:44:21.433Z,5.72
2023-08-17T08:46:56.943Z,7.45
2023-08-17T08:49:30.185Z,4.88
2023-08-17T08:52:05.140Z,10.43
2023-08-17T08:54:40.598Z,4.45
2023-08-17T08:57:17.509Z,10.52
2023-08-17T08:59:50.606Z,6.90
2023-08-17T09:02:23.141Z,5.38
2023-08-17T09:04:55.767Z,7.03
2023-08-17T09:07:30.651Z,8.05
2023-08-17T09:10:04.527Z,9.18
2023-08-17T09:12:40.975Z,7.57
2023-08-17T09:15:14.394Z,5.22
2023-08-17T09:17:48.897Z,12.10
2023-08-17T09:20:47.749Z,8.27
2023-08-17T09:23:23.100Z,7.78
2023-08-17T09:28:40.069Z,6.40
2023-08-17T09:31:12.851Z,7.60
2023-08-17T09:33:50.469Z,8.75
2023-08-17T09:36:23.993Z,10.82
2023-08-17T09:38:58.269Z,10.30
2023-08-17T09:41:30.893Z,11.18
2023-08-17T09:44:03.997Z,6.72
2023-08-17T09:46:36.467Z,9.15
2023-08-17T09:49:10.339Z,7.43
2023-08-17T09:51:45.926Z,10.70
2023-08-17T09:54:24.157Z,14.30
2023-08-17T09:56:58.152Z,12.32
2023-08-17T09:59:30.623Z,12.90
2023-08-17T10:02:05.009Z,10.95
2023-08-17T10:04:38.892Z,15.93
2023-08-17T10:07:13.453Z,11.60
2023-08-17T10:09:50.836Z,6.57
2023-08-17T10:12:28.139Z,12.75
2023-08-17T10:15:04.784Z,9.25
2023-08-17T10:18:15.573Z,10.80
2023-08-17T10:21:02.990Z,9.13
2023-08-17T10:23:36.519Z,11.25
2023-08-17T10:26:09.916Z,14.30
2023-08-17T10:28:42.891Z,10.57
2023-08-17T10:31:15.567Z,11.25
2023-08-17T10:33:49.553Z,8.23
2023-08-17T10:36:23.076Z,9.18
2023-08-17T10:39:29.428Z,15.75
2023-08-17T10:42:02.531Z,9.88
2023-08-17T10:44:49.195Z,11.85
2023-08-17T10:47:35.052Z,9.63
2023-08-17T10:50:23.018Z,8.77
2023-08-17T10:52:55.549Z,13.57
2023-08-17T10:55:40.342Z,8.27
2023-08-17T10:58:16.135Z,11.30
2023-08-17T11:00:55.807Z,11.73
2023-08-17T11:03:30.397Z,8.75
2023-08-17T11:06:18.514Z,8.85
2023-08-17T11:08:59.317Z,8.50
2023-08-17T11:11:32.199Z,10.32
2023-08-17T11:14:04.810Z,8.32
2023-08-17T11:16:37.396Z,9.50
2023-08-17T11:19:13.582Z,12.35
2023-08-17T11:21:46.430Z,12.43
2023-08-17T11:24:19.186Z,13.70
2023-08-17T11:26:51.866Z,10.27
2023-08-17T11:29:24.735Z,9.27
2023-08-17T11:31:57.413Z,12.35
2023-08-17T11:34:30.548Z,9.45
2023-08-17T11:37:05.188Z,9.57
2023-08-17T11:39:37.933Z,10.30
2023-08-17T11:42:10.492Z,8.27
2023-08-17T11:44:42.989Z,9.77
2023-08-17T11:47:15.652Z,8.75
2023-08-17T11:49:51.241Z,15.40
2023-08-17T11:52:27.910Z,10.27
2023-08-17T11:55:01.159Z,9.65
2023-08-17T11:57:34.300Z,9.98
2023-08-17T12:00:11.097Z,6.47
2023-08-17T12:02:46.373Z,8.88
2023-08-17T12:05:24.400Z,10.57
2023-08-17T12:07:57.025Z,8.57
2023-08-17T12:10:32.770Z,9.43
2023-08-17T12:13:05.473Z,7.97
2023-08-17T12:15:39.271Z,10.45
2023-08-17T12:18:11.846Z,8.90
2023-08-17T12:20:45.809Z,9.70
2023-08-17T12:23:19.237Z,13.05
2023-08-17T12:25:58.442Z,13.07
2023-08-17T12:28:30.870Z,9.98
2023-08-17T12:31:05.291Z,9.73
2023-08-17T12:33:37.855Z,9.75
2023-08-17T12:36:10.351Z,9.10
2023-08-17T12:38:46.046Z,12.10
2023-08-17T12:41:18.813Z,11.27
2023-08-17T12:43:51.464Z,12.55
2023-08-17T12:46:23.985Z,9.00
2023-08-17T12:48:56.463Z,11.63
2023-08-17T12:51:28.943Z,12.10
2023-08-17T12:54:01.443Z,7.72
2023-08-17T12:56:33.885Z,9.48
2023-08-17T12:59:06.325Z,11.95
2023-08-17T13:01:39.584Z,11.02
2023-08-17T13:04:12.040Z,8.52
2023-08-17T13:06:49.872Z,8.40
2023-08-17T13:09:22.698Z,12.23
2023-08-17T13:11:55.133Z,9.68
2023-08-17T13:14:27.675Z,8.88
2023-08-17T13:17:00.209Z,11.25
2023-08-17T13:19:32.625Z,10.70
2023-08-17T13:22:05.137Z,11.52
2023-08-17T13:24:37.629Z,19.77
2023-08-17T13:27:10.064Z,15.27
2023-08-17T13:29:42.558Z,11.07
2023-08-17T13:32:14.956Z,7.60
2023-08-17T13:34:47.423Z,8.05
2023-08-17T13:37:20.530Z,13.35
2023-08-17T13:39:53.045Z,11.40
2023-08-17T13:42:25.687Z,8.35
2023-08-17T13:44:58.461Z,10.43
2023-08-17T13:47:31.043Z,16.85
2023-08-17T13:50:04.406Z,10.88
2023-08-17T13:52:37.079Z,9.70
2023-08-17T13:55:09.815Z,9.27
2023-08-17T13:57:42.287Z,9.38
2023-08-17T14:00:14.982Z,11.20
2023-08-17T14:02:48.584Z,9.15
2023-08-17T14:05:21.426Z,8.27
2023-08-17T14:07:53.923Z,11.45
2023-08-17T14:10:38.462Z,8.18
2023-08-17T14:13:12.050Z,9.70
2023-08-17T14:15:44.471Z,10.88
2023-08-17T14:18:17.004Z,9.93
2023-08-17T14:20:49.511Z,8.68
2023-08-17T14:23:21.992Z,9.52
2023-08-17T14:25:54.442Z,11.10
2023-08-17T14:28:27.607Z,12.45
2023-08-17T14:31:00.085Z,10.02
2023-08-17T14:33:32.488Z,10.60
2023-08-17T14:36:05.105Z,11.18
2023-08-17T14:38:37.555Z,11.27
2023-08-17T14:41:10.451Z,12.80
2023-08-17T14:43:42.921Z,13.52
2023-08-17T14:46:15.874Z,11.45
2023-08-17T14:48:48.473Z,10.68
2023-08-17T14:51:20.906Z,12.55
2023-08-17T14:53:53.857Z,12.13
2023-08-17T14:56:26.318Z,13.77
2023-08-17T14:58:58.832Z,14.20
2023-08-17T15:01:31.820Z,9.75
2023-08-17T15:04:04.493Z,12.75
2023-08-17T15:09:14.311Z,11.95
2023-08-17T15:11:46.960Z,12.20
2023-08-17T15:14:19.522Z,13.73
2023-08-17T15:16:52.279Z,11.85
2023-08-17T15:19:38.264Z,13.45
2023-08-17T15:24:47.979Z,13.57
2023-08-17T15:27:21.008Z,14.38
2023-08-17T15:29:53.505Z,10.80
2023-08-17T15:32:26.317Z,11.27
2023-08-17T15:34:58.894Z,12.60
2023-08-17T15:37:31.660Z,14.25
2023-08-17T15:40:04.654Z,11.82
2023-08-17T15:42:37.067Z,13.60
2023-08-17T15:45:09.809Z,12.30
2023-08-17T15:47:42.289Z,11.88
2023-08-17T15:50:15.067Z,11.02
2023-08-17T15:52:47.467Z,15.02
2023-08-17T15:55:19.878Z,11.48
2023-08-17T15:57:53.812Z,12.52
2023-08-17T16:00:26.422Z,11.38
2023-08-17T16:02:58.995Z,13.90
2023-08-17T16:05:31.771Z,11.27
2023-08-17T16:08:04.471Z,11.20
2023-08-17T16:10:37.808Z,18.25
2023-08-17T16:13:10.326Z,14.50
2023-08-17T16:15:42.818Z,13.88
2023-08-17T16:18:15.416Z,15.48
2023-08-17T16:20:47.888Z,11.82
2023-08-17T16:23:23.073Z,12.50
2023-08-17T16:25:55.633Z,13.18
2023-08-17T16:28:28.088Z,14.38
2023-08-17T16:31:04.480Z,13.55
2023-08-17T16:33:37.618Z,16.65
2023-08-17T16:36:10.205Z,14.75
2023-08-17T16:38:42.762Z,13.02
2023-08-17T16:41:15.231Z,13.02
2023-08-17T16:43:47.943Z,14.77
2023-08-17T16:46:20.420Z,12.25
2023-08-17T16:48:52.927Z,15.77
2023-08-17T16:51:25.385Z,13.70
2023-08-17T16:53:58.976Z,13.68
2023-08-17T16:56:31.426Z,10.57
2023-08-17T16:59:03.984Z,11.10
2023-08-17T17:01:36.447Z,12.90
2023-08-17T17:04:09.076Z,12.20
2023-08-17T17:06:42.452Z,10.30
2023-08-17T17:09:15.036Z,11.45
2023-08-17T17:11:47.715Z,13.73
2023-08-17T17:14:20.250Z,9.50
2023-08-17T17:16:52.731Z,11.48
2023-08-17T17:19:25.289Z,13.23
2023-08-17T17:21:57.677Z,13.20
2023-08-17T17:24:32.174Z,14.57
2023-08-17T17:27:04.635Z,11.07
2023-08-17T17:29:37.128Z,10.85
2023-08-17T17:32:09.648Z,12.45
2023-08-17T17:34:42.162Z,13.27
2023-08-17T17:37:14.616Z,11.10
2023-08-17T17:39:47.056Z,12.18
2023-08-17T17:42:19.551Z,13.82
2023-08-17T17:44:52.039Z,15.27
2023-08-17T17:47:24.487Z,12.68
2023-08-17T17:49:56.943Z,12.70
2023-08-17T17:52:30.551Z,21.67
2023-08-17T17:55:03.681Z,15.20
2023-08-17T17:57:36.286Z,14.30
2023-08-17T18:00:11.199Z,12.65
2023-08-17T18:02:43.750Z,13.77
2023-08-17T18:05:16.185Z,15.48
2023-08-17T18:07:48.591Z,15.85
2023-08-17T18:10:21.101Z,14.27
2023-08-17T18:12:53.590Z,16.63
2023-08-17T18:15:26.045Z,11.35
2023-08-17T18:17:58.748Z,12.55
2023-08-17T18:20:31.701Z,12.88
2023-08-17T18:23:04.320Z,14.02
2023-08-17T18:25:36.757Z,12.90
2023-08-17T18:28:09.214Z,15.20
2023-08-17T18:30:41.867Z,15.65
2023-08-17T18:33:14.892Z,13.68
2023-08-17T18:35:47.379Z,15.77
2023-08-17T18:38:20.286Z,10.35
2023-08-17T18:40:54.341Z,12.05
2023-08-17T18:43:27.174Z,13.52
2023-08-17T18:45:59.693Z,16.92
2023-08-17T18:48:32.673Z,14.82
2023-08-17T18:51:05.220Z,15.20
2023-08-17T18:53:38.198Z,11.10
2023-08-17T18:56:10.772Z,14.60
2023-08-17T18:58:43.487Z,15.32
2023-08-17T19:01:16.072Z,14.75
2023-08-17T19:03:49.171Z,13.90
2023-08-17T19:06:24.774Z,17.83
2023-08-17T19:08:57.424Z,13.20
2023-08-17T19:11:30.341Z,12.00
2023-08-17T19:14:04.544Z,15.32
2023-08-17T19:16:37.196Z,15.25
2023-08-17T19:19:10.953Z,13.45
2023-08-17T19:21:43.666Z,15.55
2023-08-17T19:24:16.369Z,12.07
2023-08-17T19:26:48.937Z,13.60
2023-08-17T19:29:21.629Z,11.40
2023-08-17T19:31:54.366Z,13.23
2023-08-17T19:34:27.121Z,15.88
2023-08-17T19:36:59.881Z,14.60
2023-08-17T19:39:32.513Z,12.63
2023-08-17T19:42:05.405Z,16.50
2023-08-17T19:44:38.045Z,12.38
2023-08-17T19:47:10.717Z,13.75
2023-08-17T19:49:43.259Z,12.45
2023-08-17T19:52:16.096Z,16.52
2023-08-17T19:54:52.880Z,13.93
2023-08-17T19:57:26.706Z,12.15
2023-08-17T19:59:59.441Z,15.05
2023-08-17T20:02:32.047Z,14.80
2023-08-17T20:05:05.958Z,14.30
2023-08-17T20:07:39.425Z,13.38
2023-08-17T20:10:12.578Z,18.55
2023-08-17T20:12:45.288Z,15.80
2023-08-17T20:15:17.994Z,13.27
2023-08-17T20:17:50.715Z,15.35
2023-08-17T20:20:23.437Z,16.45
2023-08-17T20:22:56.041Z,16.85
2023-08-17T20:25:28.458Z,15.25
2023-08-17T20:28:02.209Z,21.92
2023-08-17T20:30:34.800Z,15.15
2023-08-17T20:33:07.550Z,15.88
2023-08-17T20:35:41.305Z,16.98
2023-08-17T20:38:13.937Z,17.60
2023-08-17T20:40:46.556Z,20.52
2023-08-17T20:43:19.293Z,19.88
2023-08-17T20:45:51.955Z,18.95
2023-08-17T20:48:24.394Z,18.77
2023-08-17T20:50:58.059Z,16.38
2023-08-17T20:53:30.552Z,19.80
2023-08-17T20:56:04.078Z,19.35
2023-08-17T20:58:36.770Z,15.18
2023-08-17T21:01:09.392Z,21.90
2023-08-17T21:03:41.981Z,18.95
2023-08-17T21:06:14.843Z,19.40
2023-08-17T21:08:47.321Z,20.88
2023-08-17T21:11:20.242Z,20.10
2023-08-17T21:13:52.848Z,22.33
2023-08-17T21:16:25.276Z,17.02
2023-08-17T21:19:00.586Z,20.33
2023-08-17T21:21:33.101Z,23.80
2023-08-17T21:24:05.944Z,21.77
2023-08-17T21:26:38.390Z,18.50
2023-08-17T21:29:11.096Z,22.42
2023-08-17T21:31:43.670Z,17.88
2023-08-17T21:34:19.118Z,16.90
2023-08-17T21:39:24.022Z,18.23
2023-08-17T21:41:56.526Z,15.93
2023-08-17T21:44:31.971Z,19.40
2023-08-17T21:49:36.891Z,21.23
2023-08-17T21:52:09.572Z,18.95
2023-08-17T21:54:42.589Z,18.92
2023-08-17T21:57:15.046Z,19.60
2023-08-17T21:59:47.573Z,15.38
2023-08-17T22:02:20.048Z,16.13
2023-08-17T22:04:52.537Z,17.65
2023-08-17T22:07:25.050Z,16.60
2023-08-17T22:09:57.653Z,16.25
2023-08-17T22:12:30.085Z,17.17
2023-08-17T22:15:02.632Z,17.45
2023-08-17T22:17:35.284Z,13.85
2023-08-17T22:20:09.555Z,14.30
2023-08-17T22:22:42.258Z,11.88
2023-08-17T22:25:14.996Z,14.52
2023-08-17T22:27:47.535Z,16.15
2023-08-17T22:30:20.049Z,16.17
2023-08-17T22:32:52.777Z,12.65
2023-08-17T22:35:25.505Z,18.23
2023-08-17T22:37:57.927Z,16.30
2023-08-17T22:40:30.578Z,15.00
2023-08-17T22:43:03.145Z,15.90
2023-08-17T22:45:35.622Z,12.40
2023-08-17T22:48:08.168Z,12.15
2023-08-17T22:50:41.355Z,15.35
2023-08-17T22:53:14.050Z,11.95
2023-08-17T22:55:46.584Z,15.75
2023-08-17T22:58:19.273Z,11.82
2023-08-17T23:00:51.752Z,12.60
2023-08-17T23:03:24.418Z,13.40
2023-08-17T23:05:57.025Z,13.70
2023-08-17T23:08:30.239Z,12.07
2023-08-17T23:11:03.410Z,13.25
2023-08-17T23:13:36.069Z,15.63
2023-08-17T23:16:08.600Z,12.02
2023-08-17T23:18:41.118Z,11.25
2023-08-17T23:21:13.710Z,11.15
2023-08-17T23:23:46.189Z,11.18
2023-08-17T23:26:18.724Z,9.20
2023-08-17T23:28:51.404Z,11.20
2023-08-17T23:31:23.925Z,10.48
2023-08-17T23:33:56.518Z,12.23
2023-08-17T23:36:29.164Z,12.73
2023-08-17T23:39:01.674Z,13.15
2023-08-17T23:41:34.345Z,11.20
2023-08-17T23:44:16.064Z,10.77
2023-08-17T23:46:48.909Z,9.93
2023-08-17T23:49:21.593Z,10.32
2023-08-17T23:51:54.070Z,13.98
2023-08-17T23:54:26.647Z,10.13
2023-08-17T23:56:59.043Z,10.00
2023-08-17T23:59:31.635Z,9.63
